sensor_id;sensor_type;location;lat;lon;timestamp;P1;durP1;ratioP1;P2;durP2;ratioP2
10769;SDS011;5437;50.852;4.438;2023-07-13T00:38:19;4.85;;;1.75;;
10769;SDS011;5437;50.852;4.438;2023-07-13T01:04:04;4.78;;;1.98;;
10769;SDS011;5437;50.852;4.438;2023-07-13T01:06:53;4.63;;;2.08;;
10769;SDS011;5437;50.852;4.438;2023-07-13T01:09:36;7.85;;;1.80;;
10769;SDS011;5437;50.852;4.438;2023-07-13T01:15:44;5.10;;;2.28;;
10769;SDS011;5437;50.852;4.438;2023-07-13T01:50:47;4.40;;;1.75;;
10769;SDS011;5437;50.852;4.438;2023-07-13T03:23:57;7.38;;;2.30;;
10769;SDS011;5437;50.852;4.438;2023-07-13T03:29:42;7.32;;;2.72;;
10769;SDS011;5437;50.852;4.438;2023-07-13T03:32:32;6.80;;;2.45;;
10769;SDS011;5437;50.852;4.438;2023-07-13T03:38:53;6.15;;;2.28;;
10769;SDS011;5437;50.852;4.438;2023-07-13T03:44:13;5.80;;;2.22;;
10769;SDS011;5437;50.852;4.438;2023-07-13T03:47:03;7.43;;;2.67;;
10769;SDS011;5437;50.852;4.438;2023-07-13T03:49:36;6.97;;;2.63;;
10769;SDS011;5437;50.852;4.438;2023-07-13T03:52:36;7.10;;;2.40;;
10769;SDS011;5437;50.852;4.438;2023-07-13T03:55:25;7.35;;;2.47;;
10769;SDS011;5437;50.852;4.438;2023-07-13T04:02:23;8.60;;;2.60;;
10769;SDS011;5437;50.852;4.438;2023-07-13T04:04:24;9.50;;;2.65;;
10769;SDS011;5437;50.852;4.438;2023-07-13T04:09:50;8.48;;;2.58;;
10769;SDS011;5437;50.852;4.438;2023-07-13T04:12:24;9.38;;;2.72;;
10769;SDS011;5437;50.852;4.438;2023-07-13T04:15:01;3.80;;;2.45;;
10769;SDS011;5437;50.852;4.438;2023-07-13T04:23:59;9.95;;;2.65;;
10769;SDS011;5437;50.852;4.438;2023-07-13T04:29:39;7.78;;;2.45;;
10769;SDS011;5437;50.852;4.438;2023-07-13T04:32:13;9.80;;;2.80;;
10769;SDS011;5437;50.852;4.438;2023-07-13T04:34:40;8.10;;;2.50;;
10769;SDS011;5437;50.852;4.438;2023-07-13T04:37:06;5.80;;;2.53;;
10769;SDS011;5437;50.852;4.438;2023-07-13T04:39:39;7.18;;;2.50;;
10769;SDS011;5437;50.852;4.438;2023-07-13T04:42:26;7.63;;;2.80;;
10769;SDS011;5437;50.852;4.438;2023-07-13T04:45:15;5.20;;;2.60;;
10769;SDS011;5437;50.852;4.438;2023-07-13T04:50:45;8.48;;;2.67;;
10769;SDS011;5437;50.852;4.438;2023-07-13T04:53:20;8.23;;;2.53;;
10769;SDS011;5437;50.852;4.438;2023-07-13T04:55:48;6.88;;;2.53;;
10769;SDS011;5437;50.852;4.438;2023-07-13T04:58:19;7.80;;;3.10;;
10769;SDS011;5437;50.852;4.438;2023-07-13T05:00:54;6.55;;;2.65;;
10769;SDS011;5437;50.852;4.438;2023-07-13T05:06:33;11.70;;;3.00;;
10769;SDS011;5437;50.852;4.438;2023-07-13T05:15:11;5.90;;;2.58;;
10769;SDS011;5437;50.852;4.438;2023-07-13T05:20:36;7.43;;;2.58;;
10769;SDS011;5437;50.852;4.438;2023-07-13T05:23:11;7.88;;;2.78;;
10769;SDS011;5437;50.852;4.438;2023-07-13T05:25:46;6.93;;;2.70;;
10769;SDS011;5437;50.852;4.438;2023-07-13T05:28:15;8.93;;;3.15;;
10769;SDS011;5437;50.852;4.438;2023-07-13T05:30:45;9.57;;;3.10;;
10769;SDS011;5437;50.852;4.438;2023-07-13T05:33:22;10.90;;;2.92;;
10769;SDS011;5437;50.852;4.438;2023-07-13T05:35:53;10.70;;;2.90;;
10769;SDS011;5437;50.852;4.438;2023-07-13T05:38:29;5.93;;;2.85;;
10769;SDS011;5437;50.852;4.438;2023-07-13T05:40:56;9.10;;;3.50;;
10769;SDS011;5437;50.852;4.438;2023-07-13T05:43:25;9.45;;;2.88;;
10769;SDS011;5437;50.852;4.438;2023-07-13T05:45:57;8.50;;;2.60;;
10769;SDS011;5437;50.852;4.438;2023-07-13T05:48:35;7.10;;;2.78;;
10769;SDS011;5437;50.852;4.438;2023-07-13T05:51:16;8.93;;;2.42;;
10769;SDS011;5437;50.852;4.438;2023-07-13T05:53:51;9.25;;;3.03;;
10769;SDS011;5437;50.852;4.438;2023-07-13T05:56:20;7.78;;;3.15;;
10769;SDS011;5437;50.852;4.438;2023-07-13T05:58:57;10.70;;;3.40;;
10769;SDS011;5437;50.852;4.438;2023-07-13T06:01:28;9.85;;;3.00;;
10769;SDS011;5437;50.852;4.438;2023-07-13T06:04:23;6.93;;;2.75;;
10769;SDS011;5437;50.852;4.438;2023-07-13T06:06:54;6.43;;;3.00;;
10769;SDS011;5437;50.852;4.438;2023-07-13T06:09:26;7.18;;;2.90;;
10769;SDS011;5437;50.852;4.438;2023-07-13T06:12:13;9.18;;;3.08;;
10769;SDS011;5437;50.852;4.438;2023-07-13T06:14:39;9.32;;;2.85;;
10769;SDS011;5437;50.852;4.438;2023-07-13T06:17:13;8.63;;;3.10;;
10769;SDS011;5437;50.852;4.438;2023-07-13T06:19:39;7.50;;;2.92;;
10769;SDS011;5437;50.852;4.438;2023-07-13T06:24:44;11.05;;;3.20;;
10769;SDS011;5437;50.852;4.438;2023-07-13T06:27:13;7.40;;;3.05;;
10769;SDS011;5437;50.852;4.438;2023-07-13T06:29:52;12.25;;;3.38;;
10769;SDS011;5437;50.852;4.438;2023-07-13T06:32:21;6.30;;;2.78;;
10769;SDS011;5437;50.852;4.438;2023-07-13T06:34:48;6.57;;;2.83;;
10769;SDS011;5437;50.852;4.438;2023-07-13T06:37:16;10.55;;;3.72;;
10769;SDS011;5437;50.852;4.438;2023-07-13T06:39:55;9.20;;;3.47;;
10769;SDS011;5437;50.852;4.438;2023-07-13T06:42:22;11.73;;;3.30;;
10769;SDS011;5437;50.852;4.438;2023-07-13T06:44:53;8.90;;;2.80;;
10769;SDS011;5437;50.852;4.438;2023-07-13T06:47:40;7.38;;;3.00;;
10769;SDS011;5437;50.852;4.438;2023-07-13T06:50:12;7.30;;;3.20;;
10769;SDS011;5437;50.852;4.438;2023-07-13T06:52:52;6.07;;;2.70;;
10769;SDS011;5437;50.852;4.438;2023-07-13T06:55:27;12.40;;;3.30;;
10769;SDS011;5437;50.852;4.438;2023-07-13T07:01:38;11.27;;;3.22;;
10769;SDS011;5437;50.852;4.438;2023-07-13T07:04:35;10.98;;;2.90;;
10769;SDS011;5437;50.852;4.438;2023-07-13T07:06:56;8.45;;;3.20;;
10769;SDS011;5437;50.852;4.438;2023-07-13T07:09:57;7.75;;;2.95;;
10769;SDS011;5437;50.852;4.438;2023-07-13T07:12:32;7.65;;;2.63;;
10769;SDS011;5437;50.852;4.438;2023-07-13T07:15:09;6.95;;;3.20;;
10769;SDS011;5437;50.852;4.438;2023-07-13T07:17:38;7.68;;;2.88;;
10769;SDS011;5437;50.852;4.438;2023-07-13T07:20:19;6.13;;;3.00;;
10769;SDS011;5437;50.852;4.438;2023-07-13T07:23:07;6.68;;;3.05;;
10769;SDS011;5437;50.852;4.438;2023-07-13T07:25:36;8.68;;;3.22;;
10769;SDS011;5437;50.852;4.438;2023-07-13T07:28:09;4.57;;;2.47;;
10769;SDS011;5437;50.852;4.438;2023-07-13T07:30:41;7.57;;;3.17;;
10769;SDS011;5437;50.852;4.438;2023-07-13T07:33:20;5.53;;;2.90;;
10769;SDS011;5437;50.852;4.438;2023-07-13T07:35:52;6.72;;;2.83;;
10769;SDS011;5437;50.852;4.438;2023-07-13T07:38:21;8.27;;;2.67;;
10769;SDS011;5437;50.852;4.438;2023-07-13T07:40:47;7.90;;;2.55;;
10769;SDS011;5437;50.852;4.438;2023-07-13T07:43:29;6.85;;;2.95;;
10769;SDS011;5437;50.852;4.438;2023-07-13T07:46:08;7.43;;;2.67;;
10769;SDS011;5437;50.852;4.438;2023-07-13T07:48:34;8.45;;;3.05;;
10769;SDS011;5437;50.852;4.438;2023-07-13T07:51:03;8.40;;;3.20;;
10769;SDS011;5437;50.852;4.438;2023-07-13T07:56:41;8.10;;;2.97;;
10769;SDS011;5437;50.852;4.438;2023-07-13T07:59:12;6.45;;;2.35;;
10769;SDS011;5437;50.852;4.438;2023-07-13T08:01:51;7.45;;;2.90;;
10769;SDS011;5437;50.852;4.438;2023-07-13T08:04:23;8.60;;;2.75;;
10769;SDS011;5437;50.852;4.438;2023-07-13T08:07:00;6.25;;;2.72;;
10769;SDS011;5437;50.852;4.438;2023-07-13T08:09:46;7.28;;;2.55;;
10769;SDS011;5437;50.852;4.438;2023-07-13T08:12:21;5.00;;;2.92;;
10769;SDS011;5437;50.852;4.438;2023-07-13T08:14:50;6.45;;;2.50;;
10769;SDS011;5437;50.852;4.438;2023-07-13T08:17:22;7.55;;;2.65;;
10769;SDS011;5437;50.852;4.438;2023-07-13T08:19:48;4.85;;;2.42;;
10769;SDS011;5437;50.852;4.438;2023-07-13T08:22:17;6.22;;;2.65;;
10769;SDS011;5437;50.852;4.438;2023-07-13T08:24:43;5.15;;;2.40;;
10769;SDS011;5437;50.852;4.438;2023-07-13T08:27:12;6.97;;;2.58;;
10769;SDS011;5437;50.852;4.438;2023-07-13T08:29:39;6.53;;;3.00;;
10769;SDS011;5437;50.852;4.438;2023-07-13T08:32:08;6.45;;;3.13;;
10769;SDS011;5437;50.852;4.438;2023-07-13T08:34:41;6.85;;;2.90;;
10769;SDS011;5437;50.852;4.438;2023-07-13T08:37:27;5.13;;;2.47;;
10769;SDS011;5437;50.852;4.438;2023-07-13T08:39:56;6.47;;;2.88;;
10769;SDS011;5437;50.852;4.438;2023-07-13T08:48:16;7.57;;;3.08;;
10769;SDS011;5437;50.852;4.438;2023-07-13T08:50:48;6.13;;;2.40;;
10769;SDS011;5437;50.852;4.438;2023-07-13T08:53:17;7.07;;;2.72;;
10769;SDS011;5437;50.852;4.438;2023-07-13T08:58:43;3.70;;;2.38;;
10769;SDS011;5437;50.852;4.438;2023-07-13T09:16:00;5.63;;;2.65;;
10769;SDS011;5437;50.852;4.438;2023-07-13T09:18:35;3.50;;;2.08;;
10769;SDS011;5437;50.852;4.438;2023-07-13T09:21:03;4.20;;;2.13;;
10769;SDS011;5437;50.852;4.438;2023-07-13T09:23:33;4.63;;;2.28;;
10769;SDS011;5437;50.852;4.438;2023-07-13T09:26:09;3.65;;;2.10;;
10769;SDS011;5437;50.852;4.438;2023-07-13T09:28:38;4.78;;;2.38;;
10769;SDS011;5437;50.852;4.438;2023-07-13T09:33:46;6.50;;;2.38;;
10769;SDS011;5437;50.852;4.438;2023-07-13T09:36:19;5.05;;;2.15;;
10769;SDS011;5437;50.852;4.438;2023-07-13T09:38:49;5.80;;;2.22;;
10769;SDS011;5437;50.852;4.438;2023-07-13T09:46:52;4.50;;;2.17;;
10769;SDS011;5437;50.852;4.438;2023-07-13T09:49:26;5.63;;;2.05;;
10769;SDS011;5437;50.852;4.438;2023-07-13T09:51:59;5.60;;;2.28;;
10769;SDS011;5437;50.852;4.438;2023-07-13T09:54:31;3.97;;;2.10;;
10769;SDS011;5437;50.852;4.438;2023-07-13T09:57:14;3.03;;;1.77;;
10769;SDS011;5437;50.852;4.438;2023-07-13T10:06:19;4.10;;;2.13;;
10769;SDS011;5437;50.852;4.438;2023-07-13T10:08:51;7.38;;;2.47;;
10769;SDS011;5437;50.852;4.438;2023-07-13T10:11:19;3.22;;;2.05;;
10769;SDS011;5437;50.852;4.438;2023-07-13T10:14:07;4.05;;;1.98;;
10769;SDS011;5437;50.852;4.438;2023-07-13T10:16:38;4.82;;;1.98;;
10769;SDS011;5437;50.852;4.438;2023-07-13T10:19:19;4.43;;;2.00;;
10769;SDS011;5437;50.852;4.438;2023-07-13T10:21:52;4.30;;;2.30;;
10769;SDS011;5437;50.852;4.438;2023-07-13T10:24:32;3.60;;;1.80;;
10769;SDS011;5437;50.852;4.438;2023-07-13T10:27:18;3.47;;;1.80;;
10769;SDS011;5437;50.852;4.438;2023-07-13T10:29:55;4.75;;;1.88;;
10769;SDS011;5437;50.852;4.438;2023-07-13T10:32:25;4.05;;;1.85;;
10769;SDS011;5437;50.852;4.438;2023-07-13T10:34:51;4.05;;;1.90;;
10769;SDS011;5437;50.852;4.438;2023-07-13T10:37:23;5.25;;;2.10;;
10769;SDS011;5437;50.852;4.438;2023-07-13T10:39:54;3.20;;;2.00;;
10769;SDS011;5437;50.852;4.438;2023-07-13T10:42:43;3.30;;;1.80;;
10769;SDS011;5437;50.852;4.438;2023-07-13T10:45:26;4.97;;;1.70;;
10769;SDS011;5437;50.852;4.438;2023-07-13T10:48:14;4.68;;;1.90;;
10769;SDS011;5437;50.852;4.438;2023-07-13T10:50:44;3.53;;;1.85;;
10769;SDS011;5437;50.852;4.438;2023-07-13T10:53:18;40.58;;;4.95;;
10769;SDS011;5437;50.852;4.438;2023-07-13T10:56:05;1.88;;;1.70;;
10769;SDS011;5437;50.852;4.438;2023-07-13T11:05:12;3.90;;;1.88;;
10769;SDS011;5437;50.852;4.438;2023-07-13T11:07:51;3.72;;;2.30;;
10769;SDS011;5437;50.852;4.438;2023-07-13T11:19:37;5.93;;;1.70;;
10769;SDS011;5437;50.852;4.438;2023-07-13T11:24:28;2.55;;;1.55;;
10769;SDS011;5437;50.852;4.438;2023-07-13T11:26:59;4.80;;;1.83;;
10769;SDS011;5437;50.852;4.438;2023-07-13T11:31:58;2.30;;;1.52;;
10769;SDS011;5437;50.852;4.438;2023-07-13T11:34:27;2.25;;;1.60;;
10769;SDS011;5437;50.852;4.438;2023-07-13T11:36:55;3.35;;;1.80;;
10769;SDS011;5437;50.852;4.438;2023-07-13T11:39:35;4.28;;;1.85;;
10769;SDS011;5437;50.852;4.438;2023-07-13T11:42:07;2.90;;;1.70;;
10769;SDS011;5437;50.852;4.438;2023-07-13T11:44:46;2.53;;;1.73;;
10769;SDS011;5437;50.852;4.438;2023-07-13T11:47:19;3.03;;;1.63;;
10769;SDS011;5437;50.852;4.438;2023-07-13T11:49:52;3.10;;;1.50;;
10769;SDS011;5437;50.852;4.438;2023-07-13T11:55:16;2.92;;;1.65;;
10769;SDS011;5437;50.852;4.438;2023-07-13T11:58:00;3.08;;;1.75;;
10769;SDS011;5437;50.852;4.438;2023-07-13T12:00:38;3.17;;;1.73;;
10769;SDS011;5437;50.852;4.438;2023-07-13T12:03:10;2.85;;;2.15;;
10769;SDS011;5437;50.852;4.438;2023-07-13T12:05:37;2.88;;;1.60;;
10769;SDS011;5437;50.852;4.438;2023-07-13T12:08:16;3.65;;;1.80;;
10769;SDS011;5437;50.852;4.438;2023-07-13T12:10:45;2.30;;;1.80;;
10769;SDS011;5437;50.852;4.438;2023-07-13T12:13:12;3.67;;;1.73;;
10769;SDS011;5437;50.852;4.438;2023-07-13T12:15:44;2.70;;;1.90;;
10769;SDS011;5437;50.852;4.438;2023-07-13T12:18:20;2.70;;;1.75;;
10769;SDS011;5437;50.852;4.438;2023-07-13T12:20:57;4.75;;;1.70;;
10769;SDS011;5437;50.852;4.438;2023-07-13T12:23:33;3.22;;;1.80;;
10769;SDS011;5437;50.852;4.438;2023-07-13T12:26:01;3.20;;;1.65;;
10769;SDS011;5437;50.852;4.438;2023-07-13T12:28:35;4.15;;;1.70;;
10769;SDS011;5437;50.852;4.438;2023-07-13T12:31:07;3.20;;;1.75;;
10769;SDS011;5437;50.852;4.438;2023-07-13T12:33:47;1.88;;;1.48;;
10769;SDS011;5437;50.852;4.438;2023-07-13T12:36:15;1.85;;;1.20;;
10769;SDS011;5437;50.852;4.438;2023-07-13T12:38:44;2.80;;;1.20;;
10769;SDS011;5437;50.852;4.438;2023-07-13T12:41:11;1.52;;;1.33;;
10769;SDS011;5437;50.852;4.438;2023-07-13T12:43:37;2.72;;;1.50;;
10769;SDS011;5437;50.852;4.438;2023-07-13T12:46:05;2.53;;;1.55;;
10769;SDS011;5437;50.852;4.438;2023-07-13T12:48:41;2.03;;;1.80;;
10769;SDS011;5437;50.852;4.438;2023-07-13T12:51:13;3.17;;;1.70;;
10769;SDS011;5437;50.852;4.438;2023-07-13T12:53:44;1.92;;;1.70;;
10769;SDS011;5437;50.852;4.438;2023-07-13T12:56:33;2.45;;;1.83;;
10769;SDS011;5437;50.852;4.438;2023-07-13T12:59:03;3.35;;;2.13;;
10769;SDS011;5437;50.852;4.438;2023-07-13T13:01:35;5.18;;;2.35;;
10769;SDS011;5437;50.852;4.438;2023-07-13T13:04:04;4.57;;;2.13;;
10769;SDS011;5437;50.852;4.438;2023-07-13T13:06:32;5.85;;;2.53;;
10769;SDS011;5437;50.852;4.438;2023-07-13T13:09:01;4.15;;;2.35;;
10769;SDS011;5437;50.852;4.438;2023-07-13T13:11:31;4.00;;;2.63;;
10769;SDS011;5437;50.852;4.438;2023-07-13T13:13:57;2.83;;;2.28;;
10769;SDS011;5437;50.852;4.438;2023-07-13T13:16:31;3.45;;;2.45;;
10769;SDS011;5437;50.852;4.438;2023-07-13T13:19:05;3.50;;;2.10;;
10769;SDS011;5437;50.852;4.438;2023-07-13T13:21:38;3.38;;;2.03;;
10769;SDS011;5437;50.852;4.438;2023-07-13T13:27:02;2.90;;;1.85;;
10769;SDS011;5437;50.852;4.438;2023-07-13T13:32:17;3.75;;;2.10;;
10769;SDS011;5437;50.852;4.438;2023-07-13T13:34:44;4.63;;;2.10;;
10769;SDS011;5437;50.852;4.438;2023-07-13T13:37:16;3.67;;;2.10;;
10769;SDS011;5437;50.852;4.438;2023-07-13T13:39:52;2.90;;;1.60;;
10769;SDS011;5437;50.852;4.438;2023-07-13T13:42:33;2.78;;;1.80;;
10769;SDS011;5437;50.852;4.438;2023-07-13T13:45:01;2.50;;;1.90;;
10769;SDS011;5437;50.852;4.438;2023-07-13T13:47:29;2.10;;;1.90;;
10769;SDS011;5437;50.852;4.438;2023-07-13T13:49:56;2.08;;;1.70;;
10769;SDS011;5437;50.852;4.438;2023-07-13T13:52:22;2.08;;;1.77;;
10769;SDS011;5437;50.852;4.438;2023-07-13T13:54:48;2.22;;;2.00;;
10769;SDS011;5437;50.852;4.438;2023-07-13T14:01:08;3.70;;;1.90;;
10769;SDS011;5437;50.852;4.438;2023-07-13T14:03:52;2.15;;;1.75;;
10769;SDS011;5437;50.852;4.438;2023-07-13T14:06:35;2.63;;;1.67;;
10769;SDS011;5437;50.852;4.438;2023-07-13T14:09:01;3.17;;;1.60;;
10769;SDS011;5437;50.852;4.438;2023-07-13T14:15:01;4.65;;;1.80;;
10769;SDS011;5437;50.852;4.438;2023-07-13T14:17:27;2.85;;;2.00;;
10769;SDS011;5437;50.852;4.438;2023-07-13T14:20:01;3.13;;;1.73;;
10769;SDS011;5437;50.852;4.438;2023-07-13T14:22:39;3.00;;;1.70;;
10769;SDS011;5437;50.852;4.438;2023-07-13T14:25:44;2.97;;;1.70;;
10769;SDS011;5437;50.852;4.438;2023-07-13T14:34:33;1.75;;;1.60;;
10769;SDS011;5437;50.852;4.438;2023-07-13T14:37:15;3.65;;;1.80;;
10769;SDS011;5437;50.852;4.438;2023-07-13T14:39:47;3.10;;;1.65;;
10769;SDS011;5437;50.852;4.438;2023-07-13T14:42:14;3.67;;;1.70;;
10769;SDS011;5437;50.852;4.438;2023-07-13T14:45:08;2.58;;;1.70;;
10769;SDS011;5437;50.852;4.438;2023-07-13T14:50:15;2.97;;;1.50;;
10769;SDS011;5437;50.852;4.438;2023-07-13T14:52:45;1.67;;;1.55;;
10769;SDS011;5437;50.852;4.438;2023-07-13T14:55:16;3.97;;;1.70;;
10769;SDS011;5437;50.852;4.438;2023-07-13T14:57:42;2.10;;;1.50;;
10769;SDS011;5437;50.852;4.438;2023-07-13T15:00:20;2.88;;;1.67;;
10769;SDS011;5437;50.852;4.438;2023-07-13T15:03:13;1.70;;;1.60;;
10769;SDS011;5437;50.852;4.438;2023-07-13T15:05:49;2.15;;;1.60;;
10769;SDS011;5437;50.852;4.438;2023-07-13T15:08:16;2.63;;;1.70;;
10769;SDS011;5437;50.852;4.438;2023-07-13T15:10:52;3.53;;;1.58;;
10769;SDS011;5437;50.852;4.438;2023-07-13T15:16:13;2.17;;;1.73;;
10769;SDS011;5437;50.852;4.438;2023-07-13T15:18:41;2.70;;;1.40;;
10769;SDS011;5437;50.852;4.438;2023-07-13T15:21:08;3.65;;;1.75;;
10769;SDS011;5437;50.852;4.438;2023-07-13T15:23:35;1.60;;;1.50;;
10769;SDS011;5437;50.852;4.438;2023-07-13T15:26:04;2.08;;;1.65;;
10769;SDS011;5437;50.852;4.438;2023-07-13T15:28:33;2.78;;;1.48;;
10769;SDS011;5437;50.852;4.438;2023-07-13T15:31:25;2.13;;;1.40;;
10769;SDS011;5437;50.852;4.438;2023-07-13T15:36:58;2.45;;;1.50;;
10769;SDS011;5437;50.852;4.438;2023-07-13T15:58:01;2.17;;;1.52;;
10769;SDS011;5437;50.852;4.438;2023-07-13T16:05:27;1.98;;;1.52;;
10769;SDS011;5437;50.852;4.438;2023-07-13T16:16:51;2.63;;;1.52;;
10769;SDS011;5437;50.852;4.438;2023-07-13T16:22:24;1.60;;;1.50;;
10769;SDS011;5437;50.852;4.438;2023-07-13T16:24:51;3.50;;;2.00;;
10769;SDS011;5437;50.852;4.438;2023-07-13T16:27:22;4.00;;;1.75;;
10769;SDS011;5437;50.852;4.438;2023-07-13T16:29:48;1.70;;;1.60;;
10769;SDS011;5437;50.852;4.438;2023-07-13T16:32:15;1.90;;;1.50;;
10769;SDS011;5437;50.852;4.438;2023-07-13T16:34:43;1.98;;;1.48;;
10769;SDS011;5437;50.852;4.438;2023-07-13T16:37:30;2.28;;;1.50;;
10769;SDS011;5437;50.852;4.438;2023-07-13T16:39:57;1.95;;;1.63;;
10769;SDS011;5437;50.852;4.438;2023-07-13T16:42:29;3.30;;;1.77;;
10769;SDS011;5437;50.852;4.438;2023-07-13T16:45:00;2.20;;;1.50;;
10769;SDS011;5437;50.852;4.438;2023-07-13T16:47:26;2.85;;;1.58;;
10769;SDS011;5437;50.852;4.438;2023-07-13T16:52:33;2.35;;;1.40;;
10769;SDS011;5437;50.852;4.438;2023-07-13T16:55:09;2.92;;;1.60;;
10769;SDS011;5437;50.852;4.438;2023-07-13T16:57:57;2.75;;;1.60;;
10769;SDS011;5437;50.852;4.438;2023-07-13T17:00:37;1.70;;;1.60;;
10769;SDS011;5437;50.852;4.438;2023-07-13T17:03:05;1.40;;;1.30;;
10769;SDS011;5437;50.852;4.438;2023-07-13T17:05:35;2.40;;;1.70;;
10769;SDS011;5437;50.852;4.438;2023-07-13T17:08:14;1.67;;;1.58;;
10769;SDS011;5437;50.852;4.438;2023-07-13T17:10:40;2.03;;;1.50;;
10769;SDS011;5437;50.852;4.438;2023-07-13T17:13:09;3.10;;;1.65;;
10769;SDS011;5437;50.852;4.438;2023-07-13T17:15:36;2.78;;;1.67;;
10769;SDS011;5437;50.852;4.438;2023-07-13T17:18:14;2.20;;;1.70;;
10769;SDS011;5437;50.852;4.438;2023-07-13T17:20:41;2.25;;;1.95;;
10769;SDS011;5437;50.852;4.438;2023-07-13T17:25:58;2.13;;;1.90;;
10769;SDS011;5437;50.852;4.438;2023-07-13T17:31:19;1.85;;;1.75;;
10769;SDS011;5437;50.852;4.438;2023-07-13T17:33:52;2.20;;;1.70;;
10769;SDS011;5437;50.852;4.438;2023-07-13T17:36:23;2.25;;;1.90;;
10769;SDS011;5437;50.852;4.438;2023-07-13T17:38:49;3.25;;;1.70;;
10769;SDS011;5437;50.852;4.438;2023-07-13T17:41:31;2.78;;;1.88;;
10769;SDS011;5437;50.852;4.438;2023-07-13T17:44:05;2.85;;;1.95;;
10769;SDS011;5437;50.852;4.438;2023-07-13T17:46:35;2.05;;;1.80;;
10769;SDS011;5437;50.852;4.438;2023-07-13T17:49:04;2.08;;;1.70;;
10769;SDS011;5437;50.852;4.438;2023-07-13T17:51:43;1.70;;;1.60;;
10769;SDS011;5437;50.852;4.438;2023-07-13T17:54:22;2.45;;;1.70;;
10769;SDS011;5437;50.852;4.438;2023-07-13T17:57:06;4.22;;;2.20;;
10769;SDS011;5437;50.852;4.438;2023-07-13T17:59:43;2.03;;;1.70;;
10769;SDS011;5437;50.852;4.438;2023-07-13T18:02:15;2.10;;;1.40;;
10769;SDS011;5437;50.852;4.438;2023-07-13T18:04:48;1.77;;;1.50;;
10769;SDS011;5437;50.852;4.438;2023-07-13T18:07:44;4.07;;;1.65;;
10769;SDS011;5437;50.852;4.438;2023-07-13T18:10:36;1.60;;;1.40;;
10769;SDS011;5437;50.852;4.438;2023-07-13T18:13:04;2.50;;;1.58;;
10769;SDS011;5437;50.852;4.438;2023-07-13T18:15:32;2.45;;;1.50;;
10769;SDS011;5437;50.852;4.438;2023-07-13T18:21:00;1.92;;;1.50;;
10769;SDS011;5437;50.852;4.438;2023-07-13T18:23:31;3.65;;;1.73;;
10769;SDS011;5437;50.852;4.438;2023-07-13T18:26:02;3.75;;;1.58;;
10769;SDS011;5437;50.852;4.438;2023-07-13T18:28:51;5.07;;;1.77;;
10769;SDS011;5437;50.852;4.438;2023-07-13T18:31:21;2.58;;;1.52;;
10769;SDS011;5437;50.852;4.438;2023-07-13T18:33:51;1.67;;;1.58;;
10769;SDS011;5437;50.852;4.438;2023-07-13T18:36:28;2.28;;;1.60;;
10769;SDS011;5437;50.852;4.438;2023-07-13T18:39:03;2.67;;;1.67;;
10769;SDS011;5437;50.852;4.438;2023-07-13T18:41:59;2.05;;;1.50;;
10769;SDS011;5437;50.852;4.438;2023-07-13T18:44:25;1.63;;;1.45;;
10769;SDS011;5437;50.852;4.438;2023-07-13T18:47:01;1.70;;;1.33;;
10769;SDS011;5437;50.852;4.438;2023-07-13T18:49:40;3.50;;;1.90;;
10769;SDS011;5437;50.852;4.438;2023-07-13T18:52:34;1.85;;;1.48;;
10769;SDS011;5437;50.852;4.438;2023-07-13T18:58:11;2.50;;;1.50;;
10769;SDS011;5437;50.852;4.438;2023-07-13T19:01:25;2.00;;;1.50;;
10769;SDS011;5437;50.852;4.438;2023-07-13T19:03:39;1.92;;;1.38;;
10769;SDS011;5437;50.852;4.438;2023-07-13T19:06:18;1.88;;;1.20;;
10769;SDS011;5437;50.852;4.438;2023-07-13T19:08:46;2.10;;;1.52;;
10769;SDS011;5437;50.852;4.438;2023-07-13T19:11:23;2.42;;;1.40;;
10769;SDS011;5437;50.852;4.438;2023-07-13T19:14:18;2.97;;;1.30;;
10769;SDS011;5437;50.852;4.438;2023-07-13T19:16:44;1.33;;;1.23;;
10769;SDS011;5437;50.852;4.438;2023-07-13T19:19:54;1.40;;;1.30;;
10769;SDS011;5437;50.852;4.438;2023-07-13T19:22:42;2.17;;;1.60;;
10769;SDS011;5437;50.852;4.438;2023-07-13T19:25:27;2.08;;;1.50;;
10769;SDS011;5437;50.852;4.438;2023-07-13T19:34:53;1.75;;;1.40;;
10769;SDS011;5437;50.852;4.438;2023-07-13T19:43:14;2.65;;;1.45;;
10769;SDS011;5437;50.852;4.438;2023-07-13T19:46:04;2.22;;;1.20;;
10769;SDS011;5437;50.852;4.438;2023-07-13T19:48:50;1.95;;;1.40;;
10769;SDS011;5437;50.852;4.438;2023-07-13T19:51:42;2.65;;;1.20;;
10769;SDS011;5437;50.852;4.438;2023-07-13T19:54:12;2.83;;;1.25;;
10769;SDS011;5437;50.852;4.438;2023-07-13T19:56:59;2.40;;;1.50;;
10769;SDS011;5437;50.852;4.438;2023-07-13T19:59:29;1.90;;;1.10;;
10769;SDS011;5437;50.852;4.438;2023-07-13T20:05:38;2.28;;;1.25;;
10769;SDS011;5437;50.852;4.438;2023-07-13T20:08:32;1.20;;;1.10;;
10769;SDS011;5437;50.852;4.438;2023-07-13T20:11:11;2.22;;;1.50;;
10769;SDS011;5437;50.852;4.438;2023-07-13T20:13:40;3.20;;;1.50;;
10769;SDS011;5437;50.852;4.438;2023-07-13T20:16:09;1.92;;;1.23;;
10769;SDS011;5437;50.852;4.438;2023-07-13T20:18:39;2.47;;;1.05;;
10769;SDS011;5437;50.852;4.438;2023-07-13T20:21:07;1.70;;;1.45;;
10769;SDS011;5437;50.852;4.438;2023-07-13T20:23:42;2.33;;;1.20;;
10769;SDS011;5437;50.852;4.438;2023-07-13T20:26:28;2.53;;;1.33;;
10769;SDS011;5437;50.852;4.438;2023-07-13T20:31:37;2.45;;;1.30;;
10769;SDS011;5437;50.852;4.438;2023-07-13T20:40:19;2.08;;;1.40;;
10769;SDS011;5437;50.852;4.438;2023-07-13T20:43:06;2.45;;;1.48;;
10769;SDS011;5437;50.852;4.438;2023-07-13T20:45:35;2.72;;;1.50;;
10769;SDS011;5437;50.852;4.438;2023-07-13T20:51:11;1.45;;;1.20;;
10769;SDS011;5437;50.852;4.438;2023-07-13T20:53:43;2.47;;;1.50;;
10769;SDS011;5437;50.852;4.438;2023-07-13T20:59:08;1.33;;;1.20;;
10769;SDS011;5437;50.852;4.438;2023-07-13T21:01:52;1.27;;;1.17;;
10769;SDS011;5437;50.852;4.438;2023-07-13T21:08:19;1.83;;;1.40;;
10769;SDS011;5437;50.852;4.438;2023-07-13T21:10:54;3.03;;;1.40;;
10769;SDS011;5437;50.852;4.438;2023-07-13T21:13:20;2.83;;;1.40;;
10769;SDS011;5437;50.852;4.438;2023-07-13T21:16:10;1.13;;;1.08;;
10769;SDS011;5437;50.852;4.438;2023-07-13T21:18:39;1.83;;;1.27;;
10769;SDS011;5437;50.852;4.438;2023-07-13T21:21:07;2.33;;;1.65;;
10769;SDS011;5437;50.852;4.438;2023-07-13T21:23:59;2.13;;;1.30;;
10769;SDS011;5437;50.852;4.438;2023-07-13T21:26:39;3.25;;;1.70;;
10769;SDS011;5437;50.852;4.438;2023-07-13T21:29:40;2.08;;;1.33;;
10769;SDS011;5437;50.852;4.438;2023-07-13T21:35:31;1.67;;;1.25;;
10769;SDS011;5437;50.852;4.438;2023-07-13T21:38:20;1.65;;;1.40;;
10769;SDS011;5437;50.852;4.438;2023-07-13T21:43:46;2.63;;;1.55;;
10769;SDS011;5437;50.852;4.438;2023-07-13T21:46:15;1.52;;;1.40;;
10769;SDS011;5437;50.852;4.438;2023-07-13T21:48:45;2.45;;;1.30;;
10769;SDS011;5437;50.852;4.438;2023-07-13T21:51:16;1.92;;;1.20;;
10769;SDS011;5437;50.852;4.438;2023-07-13T21:53:43;2.17;;;1.30;;
10769;SDS011;5437;50.852;4.438;2023-07-13T21:56:12;1.73;;;1.40;;
10769;SDS011;5437;50.852;4.438;2023-07-13T21:58:48;1.60;;;1.10;;
10769;SDS011;5437;50.852;4.438;2023-07-13T22:01:20;2.25;;;1.30;;
10769;SDS011;5437;50.852;4.438;2023-07-13T22:03:49;1.77;;;1.25;;
10769;SDS011;5437;50.852;4.438;2023-07-13T22:06:40;3.50;;;1.40;;
10769;SDS011;5437;50.852;4.438;2023-07-13T22:12:15;1.80;;;1.40;;
10769;SDS011;5437;50.852;4.438;2023-07-13T22:18:39;3.00;;;1.48;;
10769;SDS011;5437;50.852;4.438;2023-07-13T22:21:33;3.42;;;1.33;;
10769;SDS011;5437;50.852;4.438;2023-07-13T22:24:03;1.50;;;1.33;;
10769;SDS011;5437;50.852;4.438;2023-07-13T22:29:44;2.92;;;1.50;;
10769;SDS011;5437;50.852;4.438;2023-07-13T22:32:28;2.20;;;1.30;;
10769;SDS011;5437;50.852;4.438;2023-07-13T22:35:20;3.15;;;1.58;;
10769;SDS011;5437;50.852;4.438;2023-07-13T22:37:55;3.25;;;1.45;;
10769;SDS011;5437;50.852;4.438;2023-07-13T22:40:24;3.50;;;1.55;;
10769;SDS011;5437;50.852;4.438;2023-07-13T22:42:50;2.70;;;1.50;;
10769;SDS011;5437;50.852;4.438;2023-07-13T22:45:16;2.83;;;1.60;;
10769;SDS011;5437;50.852;4.438;2023-07-13T22:48:03;2.22;;;1.60;;
10769;SDS011;5437;50.852;4.438;2023-07-13T22:50:49;4.15;;;2.00;;
10769;SDS011;5437;50.852;4.438;2023-07-13T22:53:27;2.83;;;1.70;;